createdAt,value
2023-05-13T00:00:51.753Z,8.38
2023-05-13T00:05:57.384Z,8.27
2023-05-13T00:11:03.036Z,8.31
2023-05-13T00:16:08.418Z,8.28
2023-05-13T00:21:14.023Z,8.21
2023-05-13T00:26:19.741Z,8.26
2023-05-13T00:31:27.568Z,8.28
2023-05-13T00:36:33.274Z,8.29
2023-05-13T00:41:39.130Z,8.39
2023-05-13T00:46:44.921Z,8.31
2023-05-13T00:51:53.060Z,8.35
2023-05-13T00:57:00.056Z,8.38
2023-05-13T01:02:19.082Z,8.36
2023-05-13T01:07:38.401Z,8.34
2023-05-13T01:12:47.445Z,8.24
2023-05-13T01:18:16.976Z,8.24
2023-05-13T01:23:22.593Z,8.22
2023-05-13T01:28:29.609Z,8.23
2023-05-13T01:33:35.287Z,8.46
2023-05-13T01:38:42.592Z,8.47
2023-05-13T01:43:48.585Z,8.99
2023-05-13T01:48:53.990Z,9.41
2023-05-13T01:53:59.682Z,9.74
2023-05-13T01:59:06.308Z,10.08
2023-05-13T02:04:12.185Z,10.51
2023-05-13T02:09:21.552Z,10.77
2023-05-13T02:14:27.092Z,11.14
2023-05-13T02:19:33.116Z,11.68
2023-05-13T02:24:41.006Z,12.02
2023-05-13T02:29:47.174Z,12.03
2023-05-13T02:34:53.415Z,11.84
2023-05-13T02:39:59.845Z,11.78
2023-05-13T02:45:05.767Z,12.11
2023-05-13T02:50:15.204Z,12.22
2023-05-13T02:55:21.922Z,12.60
2023-05-13T03:00:27.773Z,13.00
2023-05-13T03:05:34.420Z,13.46
2023-05-13T03:10:40.330Z,14.15
2023-05-13T03:15:45.885Z,15.19
2023-05-13T03:20:51.499Z,16.11
2023-05-13T03:25:57.775Z,16.71
2023-05-13T03:31:03.085Z,16.88
2023-05-13T03:36:15.195Z,17.15
2023-05-13T03:41:22.024Z,17.28
2023-05-13T03:46:28.831Z,17.31
2023-05-13T03:51:35.342Z,17.43
2023-05-13T03:56:41.052Z,17.58
2023-05-13T04:01:46.631Z,17.70
2023-05-13T04:06:53.893Z,17.56
2023-05-13T04:11:59.792Z,17.38
2023-05-13T04:17:05.715Z,17.48
2023-05-13T04:22:11.391Z,17.73
2023-05-13T04:27:16.780Z,17.95
2023-05-13T04:32:24.937Z,18.45
2023-05-13T04:37:34.300Z,19.19
2023-05-13T04:42:47.986Z,19.77
2023-05-13T04:47:55.538Z,20.47
2023-05-13T04:53:05.325Z,20.98
2023-05-13T04:58:12.231Z,21.34
2023-05-13T05:03:18.261Z,21.95
2023-05-13T05:08:24.012Z,22.40
2023-05-13T05:13:30.010Z,22.70
2023-05-13T05:18:41.702Z,23.17
2023-05-13T05:23:48.573Z,24.15
2023-05-13T05:28:55.605Z,24.31
2023-05-13T05:34:02.339Z,25.12
2023-05-13T05:39:07.893Z,25.42
2023-05-13T05:44:15.000Z,26.01
2023-05-13T05:49:20.682Z,25.94
2023-05-13T05:54:28.266Z,26.28
2023-05-13T05:59:34.320Z,26.10
2023-05-13T06:04:42.431Z,26.16
2023-05-13T06:09:48.004Z,25.37
2023-05-13T06:14:53.973Z,24.43
2023-05-13T06:20:01.179Z,23.67
2023-05-13T06:25:07.731Z,22.88
2023-05-13T06:30:13.746Z,22.12
2023-05-13T06:35:20.757Z,21.90
2023-05-13T06:40:26.987Z,21.59
2023-05-13T06:45:33.981Z,21.39
2023-05-13T06:50:40.596Z,21.40
2023-05-13T06:55:46.298Z,21.44
2023-05-13T07:00:51.802Z,21.38
2023-05-13T07:05:57.924Z,21.34
2023-05-13T07:11:03.917Z,21.23
2023-05-13T07:16:09.577Z,21.21
2023-05-13T07:21:16.148Z,21.31
2023-05-13T07:26:22.261Z,21.44
2023-05-13T07:31:28.370Z,21.13
2023-05-13T07:36:34.308Z,21.40
2023-05-13T07:41:40.421Z,21.55
2023-05-13T07:46:45.994Z,21.46
2023-05-13T07:51:52.296Z,21.46
2023-05-13T07:56:58.106Z,21.80
2023-05-13T08:02:03.684Z,21.75
2023-05-13T08:07:09.241Z,21.87
2023-05-13T08:12:14.755Z,22.01
2023-05-13T08:17:20.284Z,22.07
2023-05-13T08:22:26.996Z,21.91
2023-05-13T08:27:32.695Z,21.84
2023-05-13T08:32:38.323Z,22.10
2023-05-13T08:37:43.978Z,22.06
2023-05-13T08:42:52.247Z,21.63
2023-05-13T08:48:02.237Z,22.11
2023-05-13T08:53:08.268Z,22.16
2023-05-13T08:58:14.182Z,22.34
2023-05-13T09:03:20.959Z,22.33
2023-05-13T09:08:26.886Z,22.26
2023-05-13T09:13:32.556Z,22.29
2023-05-13T09:18:39.347Z,22.52
2023-05-13T09:23:45.519Z,21.72
2023-05-13T09:29:24.355Z,21.58
2023-05-13T09:34:35.095Z,21.60
2023-05-13T09:39:43.230Z,21.90
2023-05-13T09:44:50.321Z,22.16
2023-05-13T09:49:58.219Z,22.04
2023-05-13T09:55:05.999Z,21.79
2023-05-13T10:00:20.967Z,21.92
2023-05-13T10:05:37.173Z,21.95
2023-05-13T10:10:46.542Z,21.53
2023-05-13T10:15:54.168Z,21.82
2023-05-13T10:20:59.762Z,21.97
2023-05-13T10:26:07.802Z,21.52
2023-05-13T10:31:13.342Z,21.56
2023-05-13T10:36:48.601Z,21.42
2023-05-13T10:42:31.291Z,21.68
2023-05-13T10:47:39.762Z,21.86
2023-05-13T10:52:48.453Z,21.88
2023-05-13T10:58:12.965Z,21.98
2023-05-13T11:03:23.472Z,22.07
2023-05-13T11:08:40.909Z,21.85
2023-05-13T11:13:47.035Z,21.91
2023-05-13T11:18:56.608Z,22.10
2023-05-13T11:24:07.233Z,22.08
2023-05-13T11:29:13.174Z,21.91
2023-05-13T11:34:20.354Z,21.88
2023-05-13T11:39:29.364Z,22.02
2023-05-13T11:44:36.581Z,22.14
2023-05-13T11:49:43.165Z,22.22
2023-05-13T11:54:54.071Z,22.02
2023-05-13T12:00:02.016Z,22.09
2023-05-13T12:05:12.561Z,22.36
2023-05-13T12:10:19.487Z,22.24
2023-05-13T12:15:26.255Z,21.81
2023-05-13T12:20:34.188Z,22.21
2023-05-13T12:25:48.223Z,22.40
2023-05-13T12:31:00.771Z,22.50
2023-05-13T12:36:17.214Z,22.16
2023-05-13T12:41:24.023Z,22.15
2023-05-13T12:46:30.318Z,21.83
2023-05-13T12:51:36.370Z,21.72
2023-05-13T12:56:41.856Z,21.64
2023-05-13T13:01:50.242Z,21.66
2023-05-13T13:06:55.767Z,21.44
2023-05-13T13:12:01.355Z,21.18
2023-05-13T13:17:07.775Z,20.82
2023-05-13T13:22:13.320Z,20.70
2023-05-13T13:27:19.490Z,20.75
2023-05-13T13:32:25.415Z,20.67
2023-05-13T13:37:31.310Z,20.72
2023-05-13T13:42:44.192Z,20.87
2023-05-13T13:47:53.048Z,21.07
2023-05-13T13:52:58.679Z,21.14
2023-05-13T13:58:05.023Z,21.17
2023-05-13T14:03:11.108Z,21.08
2023-05-13T14:08:16.789Z,21.02
2023-05-13T14:13:22.385Z,20.96
2023-05-13T14:18:27.903Z,21.00
2023-05-13T14:23:33.592Z,20.84
2023-05-13T14:28:39.250Z,21.04
2023-05-13T14:33:44.753Z,20.79
2023-05-13T14:38:50.189Z,20.89
2023-05-13T14:43:55.405Z,20.88
2023-05-13T14:49:01.484Z,20.77
2023-05-13T14:54:07.091Z,20.64
2023-05-13T14:59:12.659Z,20.47
2023-05-13T15:04:18.066Z,20.32
2023-05-13T15:09:23.648Z,20.11
2023-05-13T15:14:28.891Z,20.09
2023-05-13T15:19:34.300Z,19.91
2023-05-13T15:24:39.838Z,19.74
2023-05-13T15:29:45.379Z,19.48
2023-05-13T15:34:51.800Z,19.22
2023-05-13T15:39:57.350Z,18.98
2023-05-13T15:45:03.011Z,18.72
2023-05-13T15:50:10.283Z,18.47
2023-05-13T15:55:15.767Z,18.13
2023-05-13T16:00:21.450Z,17.75
2023-05-13T16:05:27.486Z,17.36
2023-05-13T16:10:33.432Z,17.03
2023-05-13T16:15:39.016Z,16.69
2023-05-13T16:20:44.998Z,16.08
2023-05-13T16:25:50.491Z,15.82
2023-05-13T16:30:58.635Z,15.72
2023-05-13T16:36:04.799Z,15.74
2023-05-13T16:41:09.984Z,15.62
2023-05-13T16:46:17.355Z,15.45
2023-05-13T16:51:23.268Z,15.25
2023-05-13T16:56:28.635Z,15.07
2023-05-13T17:01:33.851Z,14.92
2023-05-13T17:06:39.424Z,14.71
2023-05-13T17:11:44.791Z,14.63
2023-05-13T17:16:50.370Z,14.55
2023-05-13T17:21:56.065Z,14.40
2023-05-13T17:27:01.615Z,14.33
2023-05-13T17:32:07.454Z,14.27
2023-05-13T17:37:13.091Z,14.08
2023-05-13T17:42:18.724Z,14.01
2023-05-13T17:47:24.229Z,13.90
2023-05-13T17:52:29.877Z,13.79
2023-05-13T17:57:35.428Z,13.63
2023-05-13T18:02:40.927Z,13.42
2023-05-13T18:07:46.740Z,13.29
2023-05-13T18:12:55.022Z,13.00
2023-05-13T18:18:01.015Z,12.83
2023-05-13T18:23:07.026Z,12.62
2023-05-13T18:28:12.915Z,12.32
2023-05-13T18:33:21.356Z,12.15
2023-05-13T18:38:26.778Z,11.85
2023-05-13T18:43:32.588Z,11.77
2023-05-13T18:48:38.180Z,11.85
2023-05-13T18:53:43.897Z,11.80
2023-05-13T18:58:50.696Z,11.66
2023-05-13T19:03:57.443Z,11.65
2023-05-13T19:09:03.098Z,11.36
2023-05-13T19:14:08.758Z,11.55
2023-05-13T19:19:14.487Z,11.34
2023-05-13T19:24:20.062Z,11.30
2023-05-13T19:29:25.535Z,11.32
2023-05-13T19:34:31.321Z,11.29
2023-05-13T19:39:36.997Z,11.16
2023-05-13T19:44:42.762Z,11.20
2023-05-13T19:49:48.314Z,10.92
2023-05-13T19:54:53.790Z,11.20
2023-05-13T20:00:00.161Z,11.10
2023-05-13T20:05:07.195Z,11.05
2023-05-13T20:10:12.621Z,10.85
2023-05-13T20:15:18.699Z,10.73
2023-05-13T20:20:24.762Z,10.72
2023-05-13T20:25:30.432Z,10.71
2023-05-13T20:30:36.047Z,10.68
2023-05-13T20:35:41.728Z,10.41
2023-05-13T20:40:48.096Z,10.42
2023-05-13T20:45:53.802Z,10.52
2023-05-13T20:51:07.140Z,10.51
2023-05-13T20:56:13.073Z,10.33
2023-05-13T21:01:19.115Z,10.39
2023-05-13T21:06:25.605Z,10.32
2023-05-13T21:11:31.179Z,10.18
2023-05-13T21:16:36.867Z,10.25
2023-05-13T21:21:42.299Z,10.25
2023-05-13T21:26:49.476Z,9.96
2023-05-13T21:31:55.148Z,9.70
2023-05-13T21:37:00.715Z,9.68
2023-05-13T21:42:07.156Z,9.71
2023-05-13T21:47:13.121Z,9.62
2023-05-13T21:52:18.616Z,9.41
2023-05-13T21:57:24.224Z,9.35
2023-05-13T22:02:29.295Z,9.26
2023-05-13T22:07:34.978Z,9.51
2023-05-13T22:12:40.524Z,9.22
2023-05-13T22:17:49.111Z,9.12
2023-05-13T22:22:57.899Z,8.97
2023-05-13T22:28:03.372Z,9.17
2023-05-13T22:33:08.866Z,9.35
2023-05-13T22:38:15.847Z,9.52
2023-05-13T22:43:21.914Z,9.60
2023-05-13T22:48:27.474Z,9.75
2023-05-13T22:53:33.129Z,9.79
2023-05-13T22:58:38.579Z,9.88
2023-05-13T23:03:44.338Z,9.80
2023-05-13T23:08:50.069Z,9.71
2023-05-13T23:13:56.163Z,9.71
2023-05-13T23:19:02.059Z,9.41
2023-05-13T23:24:08.183Z,9.38
2023-05-13T23:29:13.531Z,9.20
2023-05-13T23:34:19.175Z,9.06
2023-05-13T23:39:24.816Z,9.03
2023-05-13T23:44:30.552Z,8.90
2023-05-13T23:49:36.132Z,9.10
2023-05-13T23:54:41.566Z,9.11
2023-05-13T23:59:47.172Z,9.07
